sensor_id;sensor_type;location;lat;lon;timestamp;P1;durP1;ratioP1;P2;durP2;ratioP2
34142;SDS011;20419;10.658;106.724;2022-09-03T00:01:17;4.85;;;2.92;;
34142;SDS011;20419;10.658;106.724;2022-09-03T00:04:13;6.05;;;3.15;;
34142;SDS011;20419;10.658;106.724;2022-09-03T00:06:53;4.35;;;2.67;;
34142;SDS011;20419;10.658;106.724;2022-09-03T00:09:26;4.90;;;2.88;;
34142;SDS011;20419;10.658;106.724;2022-09-03T00:14:31;4.15;;;2.40;;
34142;SDS011;20419;10.658;106.724;2022-09-03T00:17:08;4.95;;;3.05;;
34142;SDS011;20419;10.658;106.724;2022-09-03T00:19:42;5.13;;;2.95;;
34142;SDS011;20419;10.658;106.724;2022-09-03T00:22:46;4.68;;;2.67;;
34142;SDS011;20419;10.658;106.724;2022-09-03T00:25:16;4.78;;;2.95;;
34142;SDS011;20419;10.658;106.724;2022-09-03T00:27:44;8.25;;;2.97;;
34142;SDS011;20419;10.658;106.724;2022-09-03T00:30:15;4.43;;;2.88;;
34142;SDS011;20419;10.658;106.724;2022-09-03T00:32:47;4.50;;;2.83;;
34142;SDS011;20419;10.658;106.724;2022-09-03T00:35:22;4.28;;;2.72;;
34142;SDS011;20419;10.658;106.724;2022-09-03T00:37:51;4.72;;;3.28;;
34142;SDS011;20419;10.658;106.724;2022-09-03T00:40:30;4.55;;;2.55;;
34142;SDS011;20419;10.658;106.724;2022-09-03T00:48:22;3.75;;;2.60;;
34142;SDS011;20419;10.658;106.724;2022-09-03T00:56:04;4.82;;;2.80;;
34142;SDS011;20419;10.658;106.724;2022-09-03T01:06:48;6.45;;;3.10;;
34142;SDS011;20419;10.658;106.724;2022-09-03T01:09:52;4.05;;;2.70;;
34142;SDS011;20419;10.658;106.724;2022-09-03T01:30:28;8.20;;;2.90;;
34142;SDS011;20419;10.658;106.724;2022-09-03T01:33:04;4.90;;;2.60;;
34142;SDS011;20419;10.658;106.724;2022-09-03T01:35:52;5.43;;;3.00;;
34142;SDS011;20419;10.658;106.724;2022-09-03T01:38:31;4.75;;;2.67;;
34142;SDS011;20419;10.658;106.724;2022-09-03T01:41:20;6.60;;;2.60;;
34142;SDS011;20419;10.658;106.724;2022-09-03T01:44:47;7.57;;;2.75;;
34142;SDS011;20419;10.658;106.724;2022-09-03T01:52:51;6.72;;;2.78;;
34142;SDS011;20419;10.658;106.724;2022-09-03T01:58:18;4.65;;;2.50;;
34142;SDS011;20419;10.658;106.724;2022-09-03T02:01:18;5.53;;;2.85;;
34142;SDS011;20419;10.658;106.724;2022-09-03T02:03:52;3.67;;;2.50;;
34142;SDS011;20419;10.658;106.724;2022-09-03T02:06:27;4.82;;;2.70;;
34142;SDS011;20419;10.658;106.724;2022-09-03T02:08:56;4.10;;;2.63;;
34142;SDS011;20419;10.658;106.724;2022-09-03T02:11:23;4.72;;;2.80;;
34142;SDS011;20419;10.658;106.724;2022-09-03T02:13:51;4.10;;;2.40;;
34142;SDS011;20419;10.658;106.724;2022-09-03T02:16:23;4.35;;;2.30;;
34142;SDS011;20419;10.658;106.724;2022-09-03T02:19:09;3.83;;;2.38;;
34142;SDS011;20419;10.658;106.724;2022-09-03T02:21:39;3.97;;;2.58;;
34142;SDS011;20419;10.658;106.724;2022-09-03T02:24:10;3.70;;;2.22;;
34142;SDS011;20419;10.658;106.724;2022-09-03T02:26:37;4.20;;;2.47;;
34142;SDS011;20419;10.658;106.724;2022-09-03T02:29:04;3.88;;;2.45;;
34142;SDS011;20419;10.658;106.724;2022-09-03T02:31:31;4.32;;;2.80;;
34142;SDS011;20419;10.658;106.724;2022-09-03T02:33:58;4.03;;;2.35;;
34142;SDS011;20419;10.658;106.724;2022-09-03T02:36:33;4.93;;;2.65;;
34142;SDS011;20419;10.658;106.724;2022-09-03T02:39:08;5.78;;;2.78;;
34142;SDS011;20419;10.658;106.724;2022-09-03T02:41:34;6.65;;;2.53;;
34142;SDS011;20419;10.658;106.724;2022-09-03T02:46:38;4.72;;;2.47;;
34142;SDS011;20419;10.658;106.724;2022-09-03T02:49:06;7.38;;;3.58;;
34142;SDS011;20419;10.658;106.724;2022-09-03T02:51:34;4.07;;;2.67;;
34142;SDS011;20419;10.658;106.724;2022-09-03T02:54:01;5.28;;;2.70;;
34142;SDS011;20419;10.658;106.724;2022-09-03T02:56:28;4.75;;;3.00;;
34142;SDS011;20419;10.658;106.724;2022-09-03T02:58:55;6.05;;;3.42;;
34142;SDS011;20419;10.658;106.724;2022-09-03T03:01:22;4.80;;;3.08;;
34142;SDS011;20419;10.658;106.724;2022-09-03T03:03:49;4.40;;;3.20;;
34142;SDS011;20419;10.658;106.724;2022-09-03T03:06:16;4.90;;;2.83;;
34142;SDS011;20419;10.658;106.724;2022-09-03T03:08:45;5.22;;;3.28;;
34142;SDS011;20419;10.658;106.724;2022-09-03T03:11:14;4.20;;;2.83;;
34142;SDS011;20419;10.658;106.724;2022-09-03T03:13:43;5.05;;;3.05;;
34142;SDS011;20419;10.658;106.724;2022-09-03T03:16:10;4.70;;;3.08;;
34142;SDS011;20419;10.658;106.724;2022-09-03T03:18:38;3.60;;;2.22;;
34142;SDS011;20419;10.658;106.724;2022-09-03T03:21:06;4.47;;;2.97;;
34142;SDS011;20419;10.658;106.724;2022-09-03T03:23:33;4.13;;;2.60;;
34142;SDS011;20419;10.658;106.724;2022-09-03T03:26:02;4.33;;;3.00;;
34142;SDS011;20419;10.658;106.724;2022-09-03T03:28:29;5.00;;;3.05;;
34142;SDS011;20419;10.658;106.724;2022-09-03T03:31:04;3.97;;;2.60;;
34142;SDS011;20419;10.658;106.724;2022-09-03T03:33:32;4.20;;;2.78;;
34142;SDS011;20419;10.658;106.724;2022-09-03T03:36:02;4.15;;;2.50;;
34142;SDS011;20419;10.658;106.724;2022-09-03T03:38:36;4.25;;;2.90;;
34142;SDS011;20419;10.658;106.724;2022-09-03T03:41:37;4.28;;;2.88;;
34142;SDS011;20419;10.658;106.724;2022-09-03T03:44:00;5.28;;;3.13;;
34142;SDS011;20419;10.658;106.724;2022-09-03T03:46:30;4.18;;;2.33;;
34142;SDS011;20419;10.658;106.724;2022-09-03T03:49:05;4.78;;;2.80;;
34142;SDS011;20419;10.658;106.724;2022-09-03T03:51:33;5.22;;;3.25;;
34142;SDS011;20419;10.658;106.724;2022-09-03T03:54:00;3.90;;;2.75;;
34142;SDS011;20419;10.658;106.724;2022-09-03T03:56:27;4.32;;;2.90;;
34142;SDS011;20419;10.658;106.724;2022-09-03T03:58:54;6.07;;;3.05;;
34142;SDS011;20419;10.658;106.724;2022-09-03T04:01:23;4.45;;;2.65;;
34142;SDS011;20419;10.658;106.724;2022-09-03T04:03:50;3.83;;;2.58;;
34142;SDS011;20419;10.658;106.724;2022-09-03T04:06:17;4.20;;;2.63;;
34142;SDS011;20419;10.658;106.724;2022-09-03T04:08:46;4.20;;;2.97;;
34142;SDS011;20419;10.658;106.724;2022-09-03T04:11:14;4.00;;;2.78;;
34142;SDS011;20419;10.658;106.724;2022-09-03T04:13:43;3.92;;;2.75;;
34142;SDS011;20419;10.658;106.724;2022-09-03T04:16:12;5.25;;;2.90;;
34142;SDS011;20419;10.658;106.724;2022-09-03T04:18:49;4.10;;;2.67;;
34142;SDS011;20419;10.658;106.724;2022-09-03T04:21:17;4.07;;;2.70;;
34142;SDS011;20419;10.658;106.724;2022-09-03T04:23:46;4.43;;;2.90;;
34142;SDS011;20419;10.658;106.724;2022-09-03T04:26:15;4.05;;;2.78;;
34142;SDS011;20419;10.658;106.724;2022-09-03T04:28:42;4.25;;;2.83;;
34142;SDS011;20419;10.658;106.724;2022-09-03T04:31:10;4.77;;;3.03;;
34142;SDS011;20419;10.658;106.724;2022-09-03T04:33:38;3.47;;;2.17;;
34142;SDS011;20419;10.658;106.724;2022-09-03T04:38:34;3.95;;;2.67;;
34142;SDS011;20419;10.658;106.724;2022-09-03T04:41:01;4.40;;;2.80;;
34142;SDS011;20419;10.658;106.724;2022-09-03T04:43:29;4.13;;;2.38;;
34142;SDS011;20419;10.658;106.724;2022-09-03T04:45:59;3.88;;;2.92;;
34142;SDS011;20419;10.658;106.724;2022-09-03T04:48:26;4.13;;;2.72;;
34142;SDS011;20419;10.658;106.724;2022-09-03T04:51:00;3.97;;;2.83;;
34142;SDS011;20419;10.658;106.724;2022-09-03T04:53:35;4.00;;;2.63;;
34142;SDS011;20419;10.658;106.724;2022-09-03T04:56:13;3.80;;;2.40;;
34142;SDS011;20419;10.658;106.724;2022-09-03T05:01:10;4.18;;;2.47;;
34142;SDS011;20419;10.658;106.724;2022-09-03T05:03:37;3.93;;;2.63;;
34142;SDS011;20419;10.658;106.724;2022-09-03T05:06:04;3.65;;;2.70;;
34142;SDS011;20419;10.658;106.724;2022-09-03T05:08:32;4.25;;;2.58;;
34142;SDS011;20419;10.658;106.724;2022-09-03T05:11:02;3.92;;;2.40;;
34142;SDS011;20419;10.658;106.724;2022-09-03T05:13:30;3.95;;;2.40;;
34142;SDS011;20419;10.658;106.724;2022-09-03T05:15:58;3.38;;;2.22;;
34142;SDS011;20419;10.658;106.724;2022-09-03T05:18:25;3.75;;;2.58;;
34142;SDS011;20419;10.658;106.724;2022-09-03T05:20:58;3.45;;;2.70;;
34142;SDS011;20419;10.658;106.724;2022-09-03T05:23:26;4.10;;;2.80;;
34142;SDS011;20419;10.658;106.724;2022-09-03T05:25:59;3.75;;;2.58;;
34142;SDS011;20419;10.658;106.724;2022-09-03T05:28:28;4.38;;;2.90;;
34142;SDS011;20419;10.658;106.724;2022-09-03T05:30:59;4.22;;;2.75;;
34142;SDS011;20419;10.658;106.724;2022-09-03T05:33:36;3.70;;;2.60;;
34142;SDS011;20419;10.658;106.724;2022-09-03T05:36:05;3.67;;;2.60;;
34142;SDS011;20419;10.658;106.724;2022-09-03T05:38:33;3.55;;;2.50;;
34142;SDS011;20419;10.658;106.724;2022-09-03T05:41:00;3.50;;;2.38;;
34142;SDS011;20419;10.658;106.724;2022-09-03T05:43:29;3.72;;;2.60;;
34142;SDS011;20419;10.658;106.724;2022-09-03T05:46:01;3.90;;;2.70;;
34142;SDS011;20419;10.658;106.724;2022-09-03T05:48:28;3.58;;;2.58;;
34142;SDS011;20419;10.658;106.724;2022-09-03T05:51:02;5.35;;;2.90;;
34142;SDS011;20419;10.658;106.724;2022-09-03T05:53:29;3.33;;;2.40;;
34142;SDS011;20419;10.658;106.724;2022-09-03T05:56:02;3.40;;;2.40;;
34142;SDS011;20419;10.658;106.724;2022-09-03T05:58:41;4.00;;;2.60;;
34142;SDS011;20419;10.658;106.724;2022-09-03T06:01:16;3.50;;;2.17;;
34142;SDS011;20419;10.658;106.724;2022-09-03T06:03:45;4.05;;;2.63;;
34142;SDS011;20419;10.658;106.724;2022-09-03T06:06:12;4.13;;;2.73;;
34142;SDS011;20419;10.658;106.724;2022-09-03T06:08:40;3.73;;;2.60;;
34142;SDS011;20419;10.658;106.724;2022-09-03T06:11:07;3.70;;;2.45;;
34142;SDS011;20419;10.658;106.724;2022-09-03T06:13:34;4.85;;;2.90;;
34142;SDS011;20419;10.658;106.724;2022-09-03T06:16:04;4.38;;;2.40;;
34142;SDS011;20419;10.658;106.724;2022-09-03T06:18:31;3.58;;;2.42;;
34142;SDS011;20419;10.658;106.724;2022-09-03T06:20:59;4.40;;;2.72;;
34142;SDS011;20419;10.658;106.724;2022-09-03T06:23:27;3.67;;;2.60;;
34142;SDS011;20419;10.658;106.724;2022-09-03T06:25:59;3.38;;;2.20;;
34142;SDS011;20419;10.658;106.724;2022-09-03T06:28:31;4.35;;;2.30;;
34142;SDS011;20419;10.658;106.724;2022-09-03T06:30:59;3.28;;;2.15;;
34142;SDS011;20419;10.658;106.724;2022-09-03T06:33:27;3.45;;;2.45;;
34142;SDS011;20419;10.658;106.724;2022-09-03T06:38:28;3.30;;;2.10;;
34142;SDS011;20419;10.658;106.724;2022-09-03T06:41:00;3.80;;;2.20;;
34142;SDS011;20419;10.658;106.724;2022-09-03T06:43:29;4.35;;;2.60;;
34142;SDS011;20419;10.658;106.724;2022-09-03T06:46:16;3.20;;;2.05;;
34142;SDS011;20419;10.658;106.724;2022-09-03T06:48:45;3.17;;;2.40;;
34142;SDS011;20419;10.658;106.724;2022-09-03T06:51:13;3.75;;;2.42;;
34142;SDS011;20419;10.658;106.724;2022-09-03T06:53:41;3.28;;;2.42;;
34142;SDS011;20419;10.658;106.724;2022-09-03T06:56:09;2.97;;;1.93;;
34142;SDS011;20419;10.658;106.724;2022-09-03T06:58:36;3.58;;;2.10;;
34142;SDS011;20419;10.658;106.724;2022-09-03T07:01:09;3.40;;;2.25;;
34142;SDS011;20419;10.658;106.724;2022-09-03T07:03:38;3.35;;;1.90;;
34142;SDS011;20419;10.658;106.724;2022-09-03T07:06:07;3.10;;;1.95;;
34142;SDS011;20419;10.658;106.724;2022-09-03T07:08:34;3.05;;;2.00;;
34142;SDS011;20419;10.658;106.724;2022-09-03T07:11:01;3.65;;;2.50;;
34142;SDS011;20419;10.658;106.724;2022-09-03T07:13:41;4.05;;;2.45;;
34142;SDS011;20419;10.658;106.724;2022-09-03T07:16:13;4.00;;;2.10;;
34142;SDS011;20419;10.658;106.724;2022-09-03T07:18:50;3.15;;;1.90;;
34142;SDS011;20419;10.658;106.724;2022-09-03T07:21:19;3.22;;;2.22;;
34142;SDS011;20419;10.658;106.724;2022-09-03T07:23:48;3.67;;;2.10;;
34142;SDS011;20419;10.658;106.724;2022-09-03T07:26:17;3.42;;;1.95;;
34142;SDS011;20419;10.658;106.724;2022-09-03T07:28:46;2.83;;;1.90;;
34142;SDS011;20419;10.658;106.724;2022-09-03T07:31:18;3.30;;;1.90;;
34142;SDS011;20419;10.658;106.724;2022-09-03T07:33:56;3.60;;;2.08;;
34142;SDS011;20419;10.658;106.724;2022-09-03T07:36:24;3.10;;;2.00;;
34142;SDS011;20419;10.658;106.724;2022-09-03T07:38:55;3.88;;;2.10;;
34142;SDS011;20419;10.658;106.724;2022-09-03T07:41:24;3.15;;;1.92;;
34142;SDS011;20419;10.658;106.724;2022-09-03T07:43:52;3.33;;;2.05;;
34142;SDS011;20419;10.658;106.724;2022-09-03T07:46:22;3.80;;;1.67;;
34142;SDS011;20419;10.658;106.724;2022-09-03T07:48:52;3.22;;;2.03;;
34142;SDS011;20419;10.658;106.724;2022-09-03T07:51:22;3.13;;;1.95;;
34142;SDS011;20419;10.658;106.724;2022-09-03T07:53:55;2.95;;;1.90;;
34142;SDS011;20419;10.658;106.724;2022-09-03T07:56:22;3.08;;;1.65;;
34142;SDS011;20419;10.658;106.724;2022-09-03T07:58:50;3.25;;;2.15;;
34142;SDS011;20419;10.658;106.724;2022-09-03T08:01:20;3.30;;;2.03;;
34142;SDS011;20419;10.658;106.724;2022-09-03T08:03:48;3.38;;;1.67;;
34142;SDS011;20419;10.658;106.724;2022-09-03T08:06:18;2.78;;;1.70;;
34142;SDS011;20419;10.658;106.724;2022-09-03T08:08:45;3.70;;;2.23;;
34142;SDS011;20419;10.658;106.724;2022-09-03T08:11:12;4.32;;;2.20;;
34142;SDS011;20419;10.658;106.724;2022-09-03T08:16:08;3.30;;;2.00;;
34142;SDS011;20419;10.658;106.724;2022-09-03T08:18:35;3.83;;;1.92;;
34142;SDS011;20419;10.658;106.724;2022-09-03T08:21:04;4.63;;;1.73;;
34142;SDS011;20419;10.658;106.724;2022-09-03T08:23:32;4.00;;;1.50;;
34142;SDS011;20419;10.658;106.724;2022-09-03T08:26:03;2.70;;;1.80;;
34142;SDS011;20419;10.658;106.724;2022-09-03T08:28:30;3.10;;;1.70;;
34142;SDS011;20419;10.658;106.724;2022-09-03T08:31:20;2.80;;;1.67;;
34142;SDS011;20419;10.658;106.724;2022-09-03T08:33:47;3.95;;;1.80;;
34142;SDS011;20419;10.658;106.724;2022-09-03T08:36:21;2.90;;;1.80;;
34142;SDS011;20419;10.658;106.724;2022-09-03T08:38:54;3.63;;;2.03;;
34142;SDS011;20419;10.658;106.724;2022-09-03T08:46:45;2.97;;;1.85;;
34142;SDS011;20419;10.658;106.724;2022-09-03T08:49:15;3.13;;;2.00;;
34142;SDS011;20419;10.658;106.724;2022-09-03T08:51:44;2.85;;;1.67;;
34142;SDS011;20419;10.658;106.724;2022-09-03T08:54:12;3.28;;;2.13;;
34142;SDS011;20419;10.658;106.724;2022-09-03T08:56:39;3.40;;;1.88;;
34142;SDS011;20419;10.658;106.724;2022-09-03T08:59:08;3.15;;;1.85;;
34142;SDS011;20419;10.658;106.724;2022-09-03T09:01:48;3.47;;;1.90;;
34142;SDS011;20419;10.658;106.724;2022-09-03T09:04:34;3.90;;;1.92;;
34142;SDS011;20419;10.658;106.724;2022-09-03T09:07:20;3.25;;;1.85;;
34142;SDS011;20419;10.658;106.724;2022-09-03T09:10:07;3.60;;;1.73;;
34142;SDS011;20419;10.658;106.724;2022-09-03T09:18:20;3.55;;;2.00;;
34142;SDS011;20419;10.658;106.724;2022-09-03T09:23:26;3.60;;;2.17;;
34142;SDS011;20419;10.658;106.724;2022-09-03T09:25:58;3.60;;;2.00;;
34142;SDS011;20419;10.658;106.724;2022-09-03T09:28:32;4.20;;;1.90;;
34142;SDS011;20419;10.658;106.724;2022-09-03T09:31:02;3.58;;;2.25;;
34142;SDS011;20419;10.658;106.724;2022-09-03T09:33:30;3.33;;;2.17;;
34142;SDS011;20419;10.658;106.724;2022-09-03T09:38:32;3.50;;;2.30;;
34142;SDS011;20419;10.658;106.724;2022-09-03T09:41:10;3.38;;;2.20;;
34142;SDS011;20419;10.658;106.724;2022-09-03T09:43:37;4.00;;;2.30;;
34142;SDS011;20419;10.658;106.724;2022-09-03T09:46:11;3.30;;;2.05;;
34142;SDS011;20419;10.658;106.724;2022-09-03T09:48:42;3.25;;;1.98;;
34142;SDS011;20419;10.658;106.724;2022-09-03T09:51:23;3.67;;;2.30;;
34142;SDS011;20419;10.658;106.724;2022-09-03T09:54:01;4.43;;;2.13;;
34142;SDS011;20419;10.658;106.724;2022-09-03T09:56:46;5.45;;;2.42;;
34142;SDS011;20419;10.658;106.724;2022-09-03T09:59:23;3.40;;;2.08;;
34142;SDS011;20419;10.658;106.724;2022-09-03T10:01:50;4.35;;;2.35;;
34142;SDS011;20419;10.658;106.724;2022-09-03T10:04:23;4.07;;;2.70;;
34142;SDS011;20419;10.658;106.724;2022-09-03T10:06:57;4.75;;;2.40;;
34142;SDS011;20419;10.658;106.724;2022-09-03T10:09:28;4.20;;;2.30;;
34142;SDS011;20419;10.658;106.724;2022-09-03T10:12:00;4.00;;;2.10;;
34142;SDS011;20419;10.658;106.724;2022-09-03T10:14:39;3.47;;;2.28;;
34142;SDS011;20419;10.658;106.724;2022-09-03T10:17:15;3.67;;;2.03;;
34142;SDS011;20419;10.658;106.724;2022-09-03T10:19:59;4.47;;;2.53;;
34142;SDS011;20419;10.658;106.724;2022-09-03T10:22:50;4.45;;;2.25;;
34142;SDS011;20419;10.658;106.724;2022-09-03T10:25:18;3.72;;;2.38;;
34142;SDS011;20419;10.658;106.724;2022-09-03T10:27:46;4.43;;;2.33;;
34142;SDS011;20419;10.658;106.724;2022-09-03T10:30:13;3.38;;;2.05;;
34142;SDS011;20419;10.658;106.724;2022-09-03T10:32:44;3.60;;;2.13;;
34142;SDS011;20419;10.658;106.724;2022-09-03T10:35:34;4.00;;;2.30;;
34142;SDS011;20419;10.658;106.724;2022-09-03T10:40:41;3.30;;;2.00;;
34142;SDS011;20419;10.658;106.724;2022-09-03T10:46:30;4.20;;;2.00;;
34142;SDS011;20419;10.658;106.724;2022-09-03T10:56:34;3.75;;;2.22;;
34142;SDS011;20419;10.658;106.724;2022-09-03T10:59:29;3.50;;;2.17;;
34142;SDS011;20419;10.658;106.724;2022-09-03T11:04:29;3.30;;;1.83;;
34142;SDS011;20419;10.658;106.724;2022-09-03T11:07:04;3.55;;;2.20;;
34142;SDS011;20419;10.658;106.724;2022-09-03T11:09:54;3.80;;;2.13;;
34142;SDS011;20419;10.658;106.724;2022-09-03T11:12:41;3.53;;;2.10;;
34142;SDS011;20419;10.658;106.724;2022-09-03T11:17:47;2.92;;;1.70;;
34142;SDS011;20419;10.658;106.724;2022-09-03T11:20:22;4.32;;;2.15;;
34142;SDS011;20419;10.658;106.724;2022-09-03T11:22:52;3.20;;;1.98;;
34142;SDS011;20419;10.658;106.724;2022-09-03T11:25:27;6.72;;;1.95;;
34142;SDS011;20419;10.658;106.724;2022-09-03T11:33:12;3.20;;;2.00;;
34142;SDS011;20419;10.658;106.724;2022-09-03T11:35:40;3.63;;;2.00;;
34142;SDS011;20419;10.658;106.724;2022-09-03T11:43:26;3.08;;;1.83;;
34142;SDS011;20419;10.658;106.724;2022-09-03T11:51:00;3.22;;;1.80;;
34142;SDS011;20419;10.658;106.724;2022-09-03T11:53:35;4.13;;;2.10;;
34142;SDS011;20419;10.658;106.724;2022-09-03T11:58:32;2.90;;;1.80;;
34142;SDS011;20419;10.658;106.724;2022-09-03T12:01:07;3.63;;;2.13;;
34142;SDS011;20419;10.658;106.724;2022-09-03T12:03:53;2.90;;;1.60;;
34142;SDS011;20419;10.658;106.724;2022-09-03T12:14:08;3.17;;;1.80;;
34142;SDS011;20419;10.658;106.724;2022-09-03T12:21:48;3.20;;;1.55;;
34142;SDS011;20419;10.658;106.724;2022-09-03T12:24:15;3.70;;;1.67;;
34142;SDS011;20419;10.658;106.724;2022-09-03T12:26:42;3.58;;;1.60;;
34142;SDS011;20419;10.658;106.724;2022-09-03T12:29:21;3.22;;;2.10;;
34142;SDS011;20419;10.658;106.724;2022-09-03T12:31:48;2.90;;;1.85;;
34142;SDS011;20419;10.658;106.724;2022-09-03T12:34:16;3.25;;;1.70;;
34142;SDS011;20419;10.658;106.724;2022-09-03T12:36:46;3.33;;;1.50;;
34142;SDS011;20419;10.658;106.724;2022-09-03T12:39:21;2.70;;;1.40;;
34142;SDS011;20419;10.658;106.724;2022-09-03T12:44:46;4.43;;;1.90;;
34142;SDS011;20419;10.658;106.724;2022-09-03T12:47:14;3.85;;;1.80;;
34142;SDS011;20419;10.658;106.724;2022-09-03T12:49:44;3.72;;;1.70;;
34142;SDS011;20419;10.658;106.724;2022-09-03T12:54:41;2.88;;;1.50;;
34142;SDS011;20419;10.658;106.724;2022-09-03T12:57:10;2.88;;;1.73;;
34142;SDS011;20419;10.658;106.724;2022-09-03T12:59:41;3.22;;;1.40;;
34142;SDS011;20419;10.658;106.724;2022-09-03T13:02:13;2.83;;;1.70;;
34142;SDS011;20419;10.658;106.724;2022-09-03T13:04:50;3.53;;;1.60;;
34142;SDS011;20419;10.658;106.724;2022-09-03T13:07:25;3.10;;;1.63;;
34142;SDS011;20419;10.658;106.724;2022-09-03T13:10:05;3.67;;;1.70;;
34142;SDS011;20419;10.658;106.724;2022-09-03T13:12:43;3.03;;;1.70;;
34142;SDS011;20419;10.658;106.724;2022-09-03T13:15:21;3.17;;;1.67;;
34142;SDS011;20419;10.658;106.724;2022-09-03T13:17:55;3.13;;;1.83;;
34142;SDS011;20419;10.658;106.724;2022-09-03T13:20:33;3.40;;;1.75;;
34142;SDS011;20419;10.658;106.724;2022-09-03T13:25:33;3.10;;;1.70;;
34142;SDS011;20419;10.658;106.724;2022-09-03T13:39:58;3.13;;;1.45;;
34142;SDS011;20419;10.658;106.724;2022-09-03T13:43:02;2.87;;;1.50;;
34142;SDS011;20419;10.658;106.724;2022-09-03T13:45:50;2.70;;;1.38;;
34142;SDS011;20419;10.658;106.724;2022-09-03T13:48:37;2.80;;;1.35;;
34142;SDS011;20419;10.658;106.724;2022-09-03T13:51:28;3.55;;;1.67;;
34142;SDS011;20419;10.658;106.724;2022-09-03T14:01:42;4.03;;;1.80;;
34142;SDS011;20419;10.658;106.724;2022-09-03T14:04:21;3.30;;;1.88;;
34142;SDS011;20419;10.658;106.724;2022-09-03T14:10:14;2.90;;;1.70;;
34142;SDS011;20419;10.658;106.724;2022-09-03T14:15:45;3.55;;;1.45;;
34142;SDS011;20419;10.658;106.724;2022-09-03T14:18:31;3.00;;;1.67;;
34142;SDS011;20419;10.658;106.724;2022-09-03T14:20:58;3.92;;;1.90;;
34142;SDS011;20419;10.658;106.724;2022-09-03T14:23:50;3.85;;;1.50;;
34142;SDS011;20419;10.658;106.724;2022-09-03T14:26:28;3.03;;;1.60;;
34142;SDS011;20419;10.658;106.724;2022-09-03T14:29:18;3.55;;;1.77;;
34142;SDS011;20419;10.658;106.724;2022-09-03T14:31:59;2.67;;;1.50;;
34142;SDS011;20419;10.658;106.724;2022-09-03T14:37:22;3.55;;;1.67;;
34142;SDS011;20419;10.658;106.724;2022-09-03T14:39:56;2.67;;;1.40;;
34142;SDS011;20419;10.658;106.724;2022-09-03T14:48:11;2.92;;;1.58;;
34142;SDS011;20419;10.658;106.724;2022-09-03T14:51:12;3.28;;;1.73;;
34142;SDS011;20419;10.658;106.724;2022-09-03T14:56:21;3.00;;;1.55;;
34142;SDS011;20419;10.658;106.724;2022-09-03T15:01:35;2.70;;;1.50;;
34142;SDS011;20419;10.658;106.724;2022-09-03T15:07:04;2.60;;;1.38;;
34142;SDS011;20419;10.658;106.724;2022-09-03T15:09:37;3.05;;;1.60;;
34142;SDS011;20419;10.658;106.724;2022-09-03T15:12:09;3.40;;;1.60;;
34142;SDS011;20419;10.658;106.724;2022-09-03T15:14:49;2.88;;;1.58;;
34142;SDS011;20419;10.658;106.724;2022-09-03T15:17:32;3.28;;;1.50;;
34142;SDS011;20419;10.658;106.724;2022-09-03T15:25:55;3.05;;;1.50;;
34142;SDS011;20419;10.658;106.724;2022-09-03T15:36:52;3.50;;;1.67;;
34142;SDS011;20419;10.658;106.724;2022-09-03T15:39:27;5.10;;;1.95;;
34142;SDS011;20419;10.658;106.724;2022-09-03T15:41:56;6.32;;;2.20;;
34142;SDS011;20419;10.658;106.724;2022-09-03T15:44:27;6.88;;;2.80;;
34142;SDS011;20419;10.658;106.724;2022-09-03T15:47:08;5.45;;;2.45;;
34142;SDS011;20419;10.658;106.724;2022-09-03T16:00:55;6.30;;;2.50;;
34142;SDS011;20419;10.658;106.724;2022-09-03T16:06:02;6.38;;;2.88;;
34142;SDS011;20419;10.658;106.724;2022-09-03T16:08:58;6.05;;;2.92;;
34142;SDS011;20419;10.658;106.724;2022-09-03T16:15:09;6.93;;;2.70;;
34142;SDS011;20419;10.658;106.724;2022-09-03T16:17:48;7.37;;;2.50;;
34142;SDS011;20419;10.658;106.724;2022-09-03T16:20:29;6.05;;;2.60;;
34142;SDS011;20419;10.658;106.724;2022-09-03T16:23:00;4.78;;;2.42;;
34142;SDS011;20419;10.658;106.724;2022-09-03T16:25:52;6.75;;;2.83;;
34142;SDS011;20419;10.658;106.724;2022-09-03T16:28:36;7.30;;;2.80;;
34142;SDS011;20419;10.658;106.724;2022-09-03T16:34:34;7.90;;;2.60;;
34142;SDS011;20419;10.658;106.724;2022-09-03T16:40:54;8.00;;;3.58;;
34142;SDS011;20419;10.658;106.724;2022-09-03T16:45:49;7.70;;;3.00;;
34142;SDS011;20419;10.658;106.724;2022-09-03T16:50:53;5.72;;;2.42;;
34142;SDS011;20419;10.658;106.724;2022-09-03T16:59:01;6.50;;;2.53;;
34142;SDS011;20419;10.658;106.724;2022-09-03T17:15:30;4.25;;;2.10;;
34142;SDS011;20419;10.658;106.724;2022-09-03T17:20:47;5.82;;;2.88;;
34142;SDS011;20419;10.658;106.724;2022-09-03T17:23:28;4.65;;;2.40;;
34142;SDS011;20419;10.658;106.724;2022-09-03T17:36:29;4.68;;;2.10;;
34142;SDS011;20419;10.658;106.724;2022-09-03T17:47:38;5.47;;;2.47;;
34142;SDS011;20419;10.658;106.724;2022-09-03T17:51:11;4.30;;;2.10;;
34142;SDS011;20419;10.658;106.724;2022-09-03T17:53:38;4.53;;;2.30;;
34142;SDS011;20419;10.658;106.724;2022-09-03T17:56:22;4.80;;;2.25;;
34142;SDS011;20419;10.658;106.724;2022-09-03T17:59:03;5.13;;;2.17;;
34142;SDS011;20419;10.658;106.724;2022-09-03T18:01:34;5.15;;;2.50;;
34142;SDS011;20419;10.658;106.724;2022-09-03T18:06:56;5.13;;;2.33;;
34142;SDS011;20419;10.658;106.724;2022-09-03T18:14:48;4.68;;;2.20;;
34142;SDS011;20419;10.658;106.724;2022-09-03T18:17:26;4.03;;;2.20;;
34142;SDS011;20419;10.658;106.724;2022-09-03T18:20:02;6.35;;;2.25;;
34142;SDS011;20419;10.658;106.724;2022-09-03T18:25:59;4.35;;;2.22;;
34142;SDS011;20419;10.658;106.724;2022-09-03T18:28:54;4.50;;;2.35;;
34142;SDS011;20419;10.658;106.724;2022-09-03T18:31:40;5.45;;;2.75;;
34142;SDS011;20419;10.658;106.724;2022-09-03T18:34:30;5.00;;;2.53;;
34142;SDS011;20419;10.658;106.724;2022-09-03T18:37:17;4.10;;;2.05;;
34142;SDS011;20419;10.658;106.724;2022-09-03T18:40:08;5.28;;;2.50;;
34142;SDS011;20419;10.658;106.724;2022-09-03T18:56:52;6.80;;;2.47;;
34142;SDS011;20419;10.658;106.724;2022-09-03T19:13:36;5.88;;;2.88;;
34142;SDS011;20419;10.658;106.724;2022-09-03T19:16:47;4.72;;;2.35;;
34142;SDS011;20419;10.658;106.724;2022-09-03T19:22:34;4.45;;;2.75;;
34142;SDS011;20419;10.658;106.724;2022-09-03T19:25:21;4.43;;;2.30;;
34142;SDS011;20419;10.658;106.724;2022-09-03T19:31:10;4.07;;;2.15;;
34142;SDS011;20419;10.658;106.724;2022-09-03T19:40:14;4.55;;;2.65;;
34142;SDS011;20419;10.658;106.724;2022-09-03T19:45:49;3.22;;;2.00;;
34142;SDS011;20419;10.658;106.724;2022-09-03T19:51:31;4.82;;;2.30;;
34142;SDS011;20419;10.658;106.724;2022-09-03T19:54:22;3.70;;;2.17;;
34142;SDS011;20419;10.658;106.724;2022-09-03T19:57:10;4.30;;;2.13;;
34142;SDS011;20419;10.658;106.724;2022-09-03T19:59:58;4.60;;;2.35;;
34142;SDS011;20419;10.658;106.724;2022-09-03T20:02:45;3.80;;;1.92;;
34142;SDS011;20419;10.658;106.724;2022-09-03T20:05:31;4.03;;;2.33;;
34142;SDS011;20419;10.658;106.724;2022-09-03T20:08:18;4.07;;;2.30;;
34142;SDS011;20419;10.658;106.724;2022-09-03T20:11:03;4.07;;;2.58;;
34142;SDS011;20419;10.658;106.724;2022-09-03T20:13:31;3.63;;;2.20;;
34142;SDS011;20419;10.658;106.724;2022-09-03T20:16:22;5.13;;;2.17;;
34142;SDS011;20419;10.658;106.724;2022-09-03T20:21:57;4.53;;;2.50;;
34142;SDS011;20419;10.658;106.724;2022-09-03T20:34:43;4.80;;;2.35;;